sensor_id;sensor_type;location;lat;lon;timestamp;P1;durP1;ratioP1;P2;durP2;ratioP2
46633;SDS011;32362;49.986;8.026;2022-07-09T00:06:49;7.15;;;2.10;;
46633;SDS011;32362;49.986;8.026;2022-07-09T00:33:29;4.63;;;2.40;;
46633;SDS011;32362;49.986;8.026;2022-07-09T01:00:10;4.20;;;2.40;;
46633;SDS011;32362;49.986;8.026;2022-07-09T01:26:52;6.38;;;2.78;;
46633;SDS011;32362;49.986;8.026;2022-07-09T01:53:34;5.60;;;2.88;;
46633;SDS011;32362;49.986;8.026;2022-07-09T02:20:14;5.10;;;3.35;;
46633;SDS011;32362;49.986;8.026;2022-07-09T02:46:55;6.93;;;3.50;;
46633;SDS011;32362;49.986;8.026;2022-07-09T03:13:36;3.00;;;2.67;;
46633;SDS011;32362;49.986;8.026;2022-07-09T03:40:17;5.97;;;3.75;;
46633;SDS011;32362;49.986;8.026;2022-07-09T04:06:57;3.25;;;2.85;;
46633;SDS011;32362;49.986;8.026;2022-07-09T04:33:39;5.07;;;2.83;;
46633;SDS011;32362;49.986;8.026;2022-07-09T05:00:20;3.37;;;2.07;;
46633;SDS011;32362;49.986;8.026;2022-07-09T05:27:00;4.43;;;2.53;;
46633;SDS011;32362;49.986;8.026;2022-07-09T05:53:41;2.55;;;2.13;;
46633;SDS011;32362;49.986;8.026;2022-07-09T06:20:22;3.47;;;2.00;;
46633;SDS011;32362;49.986;8.026;2022-07-09T06:47:03;4.97;;;2.30;;
46633;SDS011;32362;49.986;8.026;2022-07-09T07:13:44;3.17;;;1.52;;
46633;SDS011;32362;49.986;8.026;2022-07-09T07:40:25;5.72;;;2.97;;
46633;SDS011;32362;49.986;8.026;2022-07-09T08:07:05;3.72;;;1.85;;
46633;SDS011;32362;49.986;8.026;2022-07-09T08:33:46;4.35;;;1.85;;
46633;SDS011;32362;49.986;8.026;2022-07-09T09:00:27;3.08;;;1.38;;
46633;SDS011;32362;49.986;8.026;2022-07-09T09:27:08;3.37;;;1.50;;
46633;SDS011;32362;49.986;8.026;2022-07-09T09:53:49;2.20;;;1.00;;
46633;SDS011;32362;49.986;8.026;2022-07-09T10:20:32;1.10;;;0.95;;
46633;SDS011;32362;49.986;8.026;2022-07-09T10:47:13;2.28;;;0.75;;
46633;SDS011;32362;49.986;8.026;2022-07-09T11:40:36;4.40;;;3.28;;
46633;SDS011;32362;49.986;8.026;2022-07-09T12:07:16;4.78;;;0.70;;
46633;SDS011;32362;49.986;8.026;2022-07-09T12:33:57;0.60;;;0.60;;
46633;SDS011;32362;49.986;8.026;2022-07-09T13:00:38;2.00;;;1.20;;
46633;SDS011;32362;49.986;8.026;2022-07-09T13:27:18;1.10;;;0.97;;
46633;SDS011;32362;49.986;8.026;2022-07-09T13:53:59;1.47;;;1.00;;
46633;SDS011;32362;49.986;8.026;2022-07-09T14:20:40;1.27;;;0.87;;
46633;SDS011;32362;49.986;8.026;2022-07-09T14:47:20;1.57;;;1.03;;
46633;SDS011;32362;49.986;8.026;2022-07-09T15:14:01;1.50;;;0.67;;
46633;SDS011;32362;49.986;8.026;2022-07-09T15:40:42;1.00;;;0.90;;
46633;SDS011;32362;49.986;8.026;2022-07-09T16:07:23;3.73;;;2.03;;
46633;SDS011;32362;49.986;8.026;2022-07-09T16:34:03;3.47;;;1.55;;
46633;SDS011;32362;49.986;8.026;2022-07-09T17:00:44;3.90;;;1.83;;
46633;SDS011;32362;49.986;8.026;2022-07-09T17:27:25;2.10;;;1.80;;
46633;SDS011;32362;49.986;8.026;2022-07-09T17:54:06;2.63;;;1.77;;
46633;SDS011;32362;49.986;8.026;2022-07-09T18:20:46;2.63;;;2.03;;
46633;SDS011;32362;49.986;8.026;2022-07-09T18:47:28;3.53;;;2.20;;
46633;SDS011;32362;49.986;8.026;2022-07-09T19:14:09;4.45;;;3.38;;
46633;SDS011;32362;49.986;8.026;2022-07-09T19:40:50;4.40;;;3.13;;
46633;SDS011;32362;49.986;8.026;2022-07-09T20:07:31;3.50;;;3.20;;
46633;SDS011;32362;49.986;8.026;2022-07-09T20:34:11;4.40;;;3.50;;
46633;SDS011;32362;49.986;8.026;2022-07-09T21:00:52;7.07;;;5.03;;
46633;SDS011;32362;49.986;8.026;2022-07-09T21:27:33;5.70;;;4.23;;
46633;SDS011;32362;49.986;8.026;2022-07-09T21:54:14;5.90;;;4.22;;
46633;SDS011;32362;49.986;8.026;2022-07-09T22:20:55;6.53;;;1.90;;
46633;SDS011;32362;49.986;8.026;2022-07-09T22:47:36;4.00;;;2.53;;
46633;SDS011;32362;49.986;8.026;2022-07-09T23:14:17;2.38;;;1.25;;
46633;SDS011;32362;49.986;8.026;2022-07-09T23:40:58;3.70;;;1.20;;
